Clopton, Alabama
Current Conditions -  °F | °C
As of 2:53 AM on Friday 24 Oct 2014 (Local Time) from KDHN Reporting Station
Clear Clear  
Wind Chill: 54°   Ceiling: Unl
Heat Index: 54°   Visibility: 10mi
Dew Point: 49°   Wind: 0mph
Humidity: 83%   Direction: NA
Pressure: 30.05"   Gusts: NA
Location:  31.61°N, 85.43°W
Report Text: KDHN 240753Z AUTO 00000KT 10SM CLR 12/09 A3005 RMK AO2 SLP173 T01220094
Loading
Personal Weather Stations






























Interactive Weather Map
Tropical Storm Tracking
New forecast layout! Learn more

10-Day Weather Forecast

Advertisements
Track Severe Weather on mobile